createdAt,value
2022-11-16T00:04:20.503Z,6.53
2022-11-16T00:09:23.945Z,6.59
2022-11-16T00:14:30.631Z,6.63
2022-11-16T00:19:34.029Z,6.64
2022-11-16T00:24:37.343Z,6.66
2022-11-16T00:29:40.853Z,6.68
2022-11-16T00:34:44.055Z,6.68
2022-11-16T00:39:47.269Z,6.70
2022-11-16T00:44:50.679Z,6.70
2022-11-16T00:49:54.089Z,6.69
2022-11-16T00:54:57.612Z,6.71
2022-11-16T01:00:00.920Z,6.70
2022-11-16T01:05:04.637Z,6.68
2022-11-16T01:10:12.742Z,6.67
2022-11-16T01:15:17.718Z,6.63
2022-11-16T01:20:23.433Z,6.61
2022-11-16T01:25:26.692Z,6.60
2022-11-16T01:30:30.098Z,6.57
2022-11-16T01:35:33.409Z,6.59
2022-11-16T01:40:38.050Z,6.61
2022-11-16T01:45:42.693Z,6.61
2022-11-16T01:50:48.299Z,6.58
2022-11-16T01:55:52.412Z,6.57
2022-11-16T02:00:55.731Z,6.54
2022-11-16T02:06:19.693Z,6.54
2022-11-16T02:11:56.182Z,6.54
2022-11-16T02:17:11.483Z,6.51
2022-11-16T02:22:25.953Z,6.50
2022-11-16T02:27:56.501Z,6.51
2022-11-16T02:33:13.551Z,6.51
2022-11-16T02:38:28.409Z,6.50
2022-11-16T02:43:37.329Z,6.46
2022-11-16T02:48:48.245Z,6.41
2022-11-16T02:54:08.965Z,6.41
2022-11-16T02:59:17.388Z,6.36
2022-11-16T03:04:28.580Z,6.27
2022-11-16T03:09:35.081Z,6.23
2022-11-16T03:14:51.280Z,6.21
2022-11-16T03:20:01.247Z,6.16
2022-11-16T03:25:05.324Z,6.10
2022-11-16T03:30:13.806Z,6.06
2022-11-16T03:35:27.870Z,6.02
2022-11-16T03:40:34.484Z,6.01
2022-11-16T03:45:38.177Z,6.00
2022-11-16T03:50:43.127Z,5.98
2022-11-16T03:55:49.813Z,5.94
2022-11-16T04:00:54.125Z,5.88
2022-11-16T04:06:16.611Z,5.83
2022-11-16T04:11:40.914Z,5.83
2022-11-16T04:17:02.762Z,5.81
2022-11-16T04:22:37.917Z,5.80
2022-11-16T04:28:00.172Z,5.76
2022-11-16T04:33:22.365Z,5.71
2022-11-16T04:38:25.637Z,5.63
2022-11-16T04:43:28.845Z,5.63
2022-11-16T04:48:32.580Z,5.59
2022-11-16T04:53:36.080Z,5.51
2022-11-16T04:58:39.390Z,5.41
2022-11-16T05:03:42.598Z,5.35
2022-11-16T05:08:45.973Z,5.32
2022-11-16T05:13:49.426Z,5.31
2022-11-16T05:19:11.579Z,5.32
2022-11-16T05:24:33.629Z,5.33
2022-11-16T05:29:37.555Z,5.30
2022-11-16T05:34:40.764Z,5.22
2022-11-16T05:39:44.380Z,5.11
2022-11-16T05:44:47.794Z,4.98
2022-11-16T05:49:51.110Z,4.79
2022-11-16T05:54:54.417Z,4.64
2022-11-16T05:59:57.728Z,4.55
2022-11-16T06:05:00.938Z,4.54
2022-11-16T06:10:04.957Z,4.52
2022-11-16T06:15:08.785Z,4.55
2022-11-16T06:20:13.018Z,4.62
2022-11-16T06:25:16.226Z,4.68
2022-11-16T06:30:19.639Z,4.63
2022-11-16T06:35:23.261Z,4.53
2022-11-16T06:40:26.466Z,4.46
2022-11-16T06:45:29.964Z,4.39
2022-11-16T06:50:33.292Z,4.33
2022-11-16T06:55:36.916Z,4.26
2022-11-16T07:00:40.323Z,4.20
2022-11-16T07:05:43.534Z,4.15
2022-11-16T07:10:46.740Z,4.17
2022-11-16T07:15:50.052Z,4.16
2022-11-16T07:20:53.276Z,4.16
2022-11-16T07:26:00.562Z,4.22
2022-11-16T07:31:06.127Z,4.23
2022-11-16T07:36:12.979Z,4.25
2022-11-16T07:41:19.068Z,4.28
2022-11-16T07:51:47.224Z,4.35
2022-11-16T07:56:51.107Z,4.39
2022-11-16T08:01:55.962Z,4.36
2022-11-16T08:06:59.350Z,4.39
2022-11-16T08:12:02.614Z,4.43
2022-11-16T08:17:05.928Z,4.32
2022-11-16T08:22:09.553Z,4.27
2022-11-16T08:27:15.517Z,4.29
2022-11-16T08:32:18.623Z,4.34
2022-11-16T08:37:21.934Z,4.47
2022-11-16T08:42:25.145Z,4.52
2022-11-16T08:47:28.453Z,4.47
2022-11-16T08:52:31.868Z,4.49
2022-11-16T08:57:35.381Z,4.46
2022-11-16T09:02:38.902Z,4.45
2022-11-16T09:07:44.367Z,4.35
2022-11-16T09:12:47.670Z,4.18
2022-11-16T09:17:55.178Z,4.10
2022-11-16T09:22:58.387Z,4.07
2022-11-16T09:28:01.700Z,4.13
2022-11-16T09:33:04.909Z,4.11
2022-11-16T09:38:11.179Z,4.07
2022-11-16T09:43:46.283Z,4.09
2022-11-16T09:48:51.393Z,4.11
2022-11-16T09:54:03.410Z,4.09
2022-11-16T09:59:23.213Z,4.14
2022-11-16T10:04:44.145Z,4.22
2022-11-16T10:09:48.057Z,4.27
2022-11-16T10:15:33.147Z,4.29
2022-11-16T10:21:04.516Z,4.32
2022-11-16T10:26:30.661Z,4.30
2022-11-16T10:31:55.987Z,4.31
2022-11-16T10:37:04.093Z,4.23
2022-11-16T10:42:14.693Z,4.26
2022-11-16T10:47:41.966Z,4.31
2022-11-16T10:52:45.273Z,4.25
2022-11-16T10:57:59.544Z,4.22
2022-11-16T11:03:02.959Z,4.25
2022-11-16T11:08:12.824Z,4.19
2022-11-16T11:13:15.926Z,4.06
2022-11-16T11:18:26.670Z,4.00
2022-11-16T11:23:29.920Z,3.98
2022-11-16T11:28:36.816Z,3.98
2022-11-16T11:33:48.933Z,3.84
2022-11-16T11:38:58.537Z,3.79
2022-11-16T11:44:03.500Z,3.82
2022-11-16T11:49:16.886Z,3.75
2022-11-16T11:54:41.755Z,3.78
2022-11-16T11:59:52.502Z,3.76
2022-11-16T12:05:11.262Z,3.73
2022-11-16T12:10:27.064Z,3.68
2022-11-16T12:15:51.880Z,3.59
2022-11-16T12:21:14.142Z,3.49
2022-11-16T12:26:52.262Z,3.39
2022-11-16T12:32:29.161Z,3.29
2022-11-16T12:37:32.266Z,3.18
2022-11-16T12:42:42.747Z,3.16
2022-11-16T12:48:22.509Z,3.12
2022-11-16T12:53:44.663Z,3.18
2022-11-16T12:59:03.333Z,3.28
2022-11-16T13:04:16.475Z,3.28
2022-11-16T13:09:30.432Z,3.26
2022-11-16T13:14:55.660Z,3.29
2022-11-16T13:20:17.025Z,3.29
2022-11-16T13:25:39.451Z,3.29
2022-11-16T13:30:51.468Z,3.33
2022-11-16T13:35:55.107Z,3.40
2022-11-16T13:41:29.124Z,3.42
2022-11-16T13:46:57.347Z,3.35
2022-11-16T13:52:23.622Z,3.38
2022-11-16T13:57:32.919Z,3.47
2022-11-16T14:02:41.139Z,3.52
2022-11-16T14:07:50.798Z,3.52
2022-11-16T14:12:55.123Z,3.47
2022-11-16T14:18:02.136Z,3.49
2022-11-16T14:23:36.460Z,3.47
2022-11-16T14:28:45.615Z,3.37
2022-11-16T14:33:55.683Z,3.29
2022-11-16T14:39:17.945Z,3.29
2022-11-16T14:44:24.886Z,3.32
2022-11-16T14:49:29.431Z,3.47
2022-11-16T14:54:42.825Z,3.44
2022-11-16T14:59:47.052Z,3.48
2022-11-16T15:04:52.828Z,3.48
2022-11-16T15:09:59.487Z,3.46
2022-11-16T15:15:17.158Z,3.48
2022-11-16T15:20:25.075Z,3.52
2022-11-16T15:25:40.576Z,3.60
2022-11-16T15:30:49.826Z,3.67
2022-11-16T15:35:55.598Z,3.62
2022-11-16T15:48:25.472Z,3.51
2022-11-16T15:53:39.599Z,3.52
2022-11-16T15:58:43.157Z,3.51
2022-11-16T16:04:07.560Z,3.49
2022-11-16T16:09:22.099Z,3.41
2022-11-16T16:14:31.483Z,3.34
2022-11-16T16:19:42.068Z,3.31
2022-11-16T16:24:46.913Z,3.28
2022-11-16T16:29:56.758Z,3.25
2022-11-16T16:35:02.757Z,3.26
2022-11-16T16:40:07.034Z,3.26
2022-11-16T16:45:18.793Z,3.26
2022-11-16T16:50:22.002Z,3.30
2022-11-16T16:55:25.210Z,3.31
2022-11-16T17:00:28.417Z,3.30
2022-11-16T17:05:34.197Z,3.28
2022-11-16T17:10:39.022Z,3.23
2022-11-16T17:15:42.354Z,3.24
2022-11-16T17:20:45.690Z,3.22
2022-11-16T17:25:49.069Z,3.18
2022-11-16T17:30:52.685Z,3.14
2022-11-16T17:35:57.432Z,3.13
2022-11-16T17:41:07.708Z,3.10
2022-11-16T17:46:13.679Z,3.08
2022-11-16T17:51:24.162Z,3.06
2022-11-16T17:56:28.593Z,3.04
2022-11-16T18:01:34.126Z,2.99
2022-11-16T18:06:37.879Z,2.96
2022-11-16T18:11:41.395Z,2.94
2022-11-16T18:16:44.703Z,2.93
2022-11-16T18:21:53.104Z,2.89
2022-11-16T18:26:57.678Z,2.88
2022-11-16T18:32:01.089Z,2.89
2022-11-16T18:37:04.300Z,2.92
2022-11-16T18:42:07.823Z,2.94
2022-11-16T18:47:11.023Z,2.98
2022-11-16T18:52:14.337Z,2.99
2022-11-16T18:57:17.641Z,3.01
2022-11-16T19:02:21.371Z,3.02
2022-11-16T19:07:25.225Z,3.05
2022-11-16T19:12:28.803Z,3.07
2022-11-16T19:17:32.114Z,3.08
2022-11-16T19:22:35.730Z,3.09
2022-11-16T19:27:39.016Z,3.12
2022-11-16T19:32:42.253Z,3.14
2022-11-16T19:37:45.560Z,3.15
2022-11-16T19:42:48.872Z,3.18
2022-11-16T19:47:52.285Z,3.19
2022-11-16T19:52:56.517Z,3.20
2022-11-16T19:57:59.827Z,3.20
2022-11-16T20:03:03.138Z,3.17
2022-11-16T20:08:06.447Z,3.16
2022-11-16T20:13:09.864Z,3.16
2022-11-16T20:22:45.149Z,3.20
2022-11-16T20:27:48.361Z,3.20
2022-11-16T20:32:52.897Z,3.21
2022-11-16T20:37:56.513Z,3.21
2022-11-16T20:43:00.444Z,3.22
2022-11-16T20:48:04.414Z,3.24
2022-11-16T20:53:07.674Z,3.27
2022-11-16T20:58:10.890Z,3.29
2022-11-16T21:03:15.327Z,3.33
2022-11-16T21:08:18.970Z,3.33
2022-11-16T21:13:41.196Z,3.34
2022-11-16T21:18:44.607Z,3.34
2022-11-16T21:23:52.017Z,3.34
2022-11-16T21:28:56.277Z,3.34
2022-11-16T21:34:02.845Z,3.31
2022-11-16T21:39:06.147Z,3.27
2022-11-16T21:44:09.359Z,3.26
2022-11-16T21:49:12.766Z,3.26
2022-11-16T21:54:15.875Z,3.30
2022-11-16T21:59:19.185Z,3.29
2022-11-16T22:04:41.338Z,3.24
2022-11-16T22:09:44.647Z,3.26
2022-11-16T22:14:47.855Z,3.20
2022-11-16T22:19:51.165Z,3.14
2022-11-16T22:24:54.579Z,3.11
2022-11-16T22:29:58.096Z,3.06
2022-11-16T22:35:01.311Z,3.00
2022-11-16T22:40:05.661Z,2.99
2022-11-16T22:45:09.257Z,3.03
2022-11-16T22:50:12.670Z,3.04
2022-11-16T22:55:15.881Z,3.05
2022-11-16T23:00:20.216Z,3.07
2022-11-16T23:05:23.626Z,3.09
2022-11-16T23:10:26.938Z,3.04
2022-11-16T23:15:50.420Z,3.02
2022-11-16T23:21:12.574Z,3.00
2022-11-16T23:26:42.212Z,3.05
2022-11-16T23:31:45.718Z,3.05
2022-11-16T23:36:49.032Z,3.02
2022-11-16T23:42:11.387Z,2.96
2022-11-16T23:47:14.902Z,2.91
2022-11-16T23:52:18.313Z,2.93
2022-11-16T23:57:21.831Z,2.92
